Flight Track Log - Related Links

Times and Time Zones

All times are in EST time to prevent confusion due to time zone crossing. See the HA117 flight status page for this flight to view local times or setup timezone preferences in your user account.

Time Position Orientation Groundspeed Altitude Reporting Facility
EST Latitude Longitude Course Direction KTS MPH feet Rate Location/Type
Fri 09:49:50 PM 54.2667 -128.5333 146° Southeast 140 161 10,200  Level Vancouver Center
Fri 09:50:00 PM 54.1251 -128.1786 146° Southeast  Level FlightAware Approximate
Fri 09:50:50 PM 54.2333 -128.5167 164° South 140 161 11,100  Level Vancouver Center
Fri 09:51:00 PM 54.0681 -128.1127 146° Southeast  Level FlightAware Approximate
Fri 09:51:50 PM 54.2000 -128.4500 131° Southeast 160 184 12,100  Level Vancouver Center
Fri 09:52:00 PM 54.0111 -128.0471 146° Southeast  Level FlightAware Approximate
Fri 09:52:50 PM 54.1667 -128.4167 150° Southeast 170 196 13,000  Level Vancouver Center
Fri 09:53:00 PM 53.9540 -127.9816 146° Southeast  Level FlightAware Approximate
Fri 09:53:50 PM 54.1167 -128.3500 142° Southeast 180 207 14,200  Level Vancouver Center
Fri 09:54:00 PM 53.8969 -127.9163 146° Southeast  Level FlightAware Approximate
Fri 09:54:50 PM 54.0833 -128.3167 150° Southeast 180 207 15,000  Level Vancouver Center
Fri 09:55:00 PM 53.8398 -127.8511 146° Southeast  Level FlightAware Approximate
Fri 09:55:50 PM 54.0333 -128.2667 150° Southeast 190 219 15,800  Level Vancouver Center
Fri 09:56:50 PM 54.0000 -128.2333 150° Southeast 180 207 16,600 800 Climbing Vancouver Center
Fri 09:57:50 PM 53.9500 -128.1667 142° Southeast 190 219 17,400 950 Climbing Vancouver Center
Fri 09:58:50 PM 53.9000 -128.1000 142° Southeast 190 219 18,500 900 Climbing Vancouver Center
Fri 09:59:50 PM 53.8500 -128.0667 159° South 190 219 19,200 750 Climbing Vancouver Center
Fri 10:00:50 PM 53.8000 -128.0167 149° Southeast 200 230 20,000 750 Climbing Vancouver Center
Fri 10:01:50 PM 53.7833 -127.9500 113° Southeast 200 230 20,700 700 Climbing Vancouver Center
Fri 10:02:50 PM 53.7333 -127.8833 142° Southeast 210 242 21,400 650 Climbing Vancouver Center
Fri 10:03:50 PM 53.6833 -127.8500 158° South 200 230 22,000 700 Climbing Vancouver Center
Fri 10:04:50 PM 53.6333 -127.8000 149° Southeast 200 230 22,800 700 Climbing Vancouver Center
Fri 10:05:50 PM 53.5833 -127.7333 142° Southeast 200 230 23,400 600 Climbing Vancouver Center
Fri 10:06:50 PM 53.5333 -127.6667 142° Southeast 210 242 24,000 550 Climbing Vancouver Center
Fri 10:07:50 PM 53.4833 -127.6167 149° Southeast 200 230 24,500 450 Climbing Vancouver Center
Fri 10:08:50 PM 53.4333 -127.5500 142° Southeast 210 242 24,900 250 Climbing Vancouver Center
Fri 10:09:50 PM 53.3833 -127.5000 149° Southeast 220 253 25,000 50 Climbing Vancouver Center
Fri 10:10:50 PM 53.3333 -127.4333 141° Southeast 230 265 25,000  Level Vancouver Center
Fri 10:11:50 PM 53.2833 -127.3667 141° Southeast 250 288 25,000  Level Vancouver Center
Fri 10:12:50 PM 53.2167 -127.3167 156° South 250 288 25,000  Level Vancouver Center
Fri 10:13:50 PM 53.1667 -127.2500 141° Southeast 260 299 25,000  Level Vancouver Center
Fri 10:14:50 PM 53.1000 -127.1667 143° Southeast 260 299 25,000  Level Vancouver Center
Fri 10:15:50 PM 53.0333 -127.1000 149° Southeast 260 299 25,000  Level Vancouver Center
Fri 10:16:50 PM 52.9667 -127.0167 143° Southeast 270 311 25,000  Level Vancouver Center
Fri 10:17:50 PM 52.9167 -126.9500 141° Southeast 260 299 25,000  Level Vancouver Center
Fri 10:18:50 PM 52.8500 -126.9000 156° South 260 299 25,000  Level Vancouver Center
Fri 10:19:50 PM 52.7833 -126.8333 149° Southeast 270 311 25,000  Level Vancouver Center
Fri 10:20:50 PM 52.7333 -126.7500 135° Southeast 270 311 25,000  Level Vancouver Center
Fri 10:21:50 PM 52.6833 -126.6833 141° Southeast 270 311 25,000  Level Vancouver Center
Fri 10:22:50 PM 52.6000 -126.6000 149° Southeast 270 311 25,000  Level Vancouver Center
Fri 10:23:50 PM 52.5500 -126.5500 149° Southeast 270 311 25,000  Level Vancouver Center
Fri 10:24:50 PM 52.4833 -126.4833 149° Southeast 280 322 25,000  Level Vancouver Center
Fri 10:25:50 PM 52.4167 -126.4000 143° Southeast 270 311 25,000  Level Vancouver Center
Fri 10:26:50 PM 52.3500 -126.3333 149° Southeast 270 311 25,000  Level Vancouver Center
Fri 10:27:50 PM 52.2833 -126.2500 143° Southeast 270 311 25,000  Level Vancouver Center
Fri 10:28:50 PM 52.2167 -126.2000 155° Southeast 270 311 25,000  Level Vancouver Center
Fri 10:29:50 PM 52.1500 -126.1333 148° Southeast 270 311 25,000  Level Vancouver Center
Fri 10:30:50 PM 52.1000 -126.0500 134° Southeast 270 311 25,000  Level Vancouver Center
Fri 10:31:50 PM 52.0333 -126.0000 155° Southeast 270 311 25,000  Level Vancouver Center
Fri 10:32:50 PM 51.9667 -125.9333 148° Southeast 270 311 25,000  Level Vancouver Center
Fri 10:33:50 PM 51.9167 -125.8500 134° Southeast 280 322 25,000  Level Vancouver Center
Fri 10:34:50 PM 51.8500 -125.8000 155° Southeast 280 322 25,000  Level Vancouver Center
Fri 10:35:50 PM 51.7833 -125.7167 142° Southeast 280 322 25,000  Level Vancouver Center
Fri 10:36:50 PM 51.7167 -125.6500 148° Southeast 280 322 25,000  Level Vancouver Center
Fri 10:37:50 PM 51.6500 -125.5667 142° Southeast 280 322 25,000  Level Vancouver Center
Fri 10:38:50 PM 51.5833 -125.5167 155° Southeast 270 311 25,000  Level Vancouver Center
Fri 10:39:50 PM 51.5167 -125.4667 155° Southeast 270 311 25,000  Level Vancouver Center
Fri 10:40:50 PM 51.4667 -125.3833 134° Southeast 270 311 25,000  Level Vancouver Center
Fri 10:41:50 PM 51.4000 -125.3167 148° Southeast 270 311 25,000  Level Vancouver Center
Fri 10:42:50 PM 51.3333 -125.2667 155° Southeast 270 311 25,000  Level Vancouver Center
Fri 10:43:50 PM 51.2667 -125.1833 142° Southeast 270 311 25,000  Level Vancouver Center
Fri 10:44:50 PM 51.2000 -125.1333 155° Southeast 270 311 25,000  Level Vancouver Center
Fri 10:45:50 PM 51.1333 -125.0500 142° Southeast 270 311 25,000  Level Vancouver Center
Fri 10:46:50 PM 51.0833 -125.0000 148° Southeast 270 311 25,000  Level Vancouver Center
Fri 10:47:50 PM 51.0167 -124.9333 148° Southeast 280 322 25,000  Level Vancouver Center
Fri 10:48:50 PM 50.9500 -124.8667 148° Southeast 280 322 25,000  Level Vancouver Center
Fri 10:49:50 PM 50.8833 -124.8000 148° Southeast 280 322 25,000  Level Vancouver Center
Fri 10:50:50 PM 50.8167 -124.7167 142° Southeast 280 322 25,000  Level Vancouver Center
Fri 10:51:50 PM 50.7500 -124.6667 155° Southeast 280 322 25,000  Level Vancouver Center
Fri 10:52:50 PM 50.6833 -124.5833 142° Southeast 280 322 25,000  Level Vancouver Center
Fri 10:53:50 PM 50.6167 -124.5333 155° Southeast 280 322 25,000  Level Vancouver Center
Fri 10:54:50 PM 50.5500 -124.4500 142° Southeast 280 322 25,000  Level Vancouver Center
Fri 10:55:50 PM 50.4833 -124.4000 154° Southeast 290 334 25,000  Level Vancouver Center
Fri 10:56:50 PM 50.4167 -124.3167 141° Southeast 280 322 25,000 -50 Level Vancouver Center
Fri 10:57:50 PM 50.3500 -124.2667 154° Southeast 290 334 24,900 -650 Descending Vancouver Center
Fri 10:58:50 PM 50.2667 -124.1833 147° Southeast 300 345 23,700 -1,450 Descending Vancouver Center
Fri 10:59:50 PM 50.2000 -124.1167 147° Southeast 320 368 22,000 -1,750 Descending Vancouver Center
Fri 11:00:50 PM 50.1167 -124.0667 159° South 320 368 20,200 -1,750 Descending Vancouver Center
Fri 11:01:50 PM 50.0500 -123.9833 141° Southeast 310 357 18,500 -1,650 Descending Vancouver Center
Fri 11:02:50 PM 49.9833 -123.9000 141° Southeast 310 357 16,900 -1,650 Descending Vancouver Center
Fri 11:03:50 PM 49.9000 -123.8167 147° Southeast 300 345 15,200 -1,600 Descending Vancouver Center
Fri 11:04:50 PM 49.8333 -123.7667 154° Southeast 280 322 13,700 -1,500 Descending Vancouver Center
Fri 11:05:50 PM 49.7833 -123.7167 147° Southeast 280 322 12,200 -1,400 Descending Vancouver Center
Fri 11:06:50 PM 49.7000 -123.6667 159° South 280 322 10,900 -1,100 Descending Vancouver Center
Fri 11:07:50 PM 49.6500 -123.6167 147° Southeast 260 299 10,000 -450 Descending Vancouver Center
Fri 11:08:50 PM 49.5833 -123.5667 154° Southeast 240 276 10,000  Level Vancouver Center
Fri 11:09:50 PM 49.5333 -123.5167 147° Southeast 230 265 10,000  Level Vancouver Center
Fri 11:10:50 PM 49.4667 -123.4667 154° Southeast 230 265 10,000  Level Vancouver Center
Fri 11:11:50 PM 49.4167 -123.4167 147° Southeast 230 265 10,000  Level Vancouver Center
Fri 11:12:50 PM 49.3500 -123.3833 162° South 230 265 10,000  Level Vancouver Center
Fri 11:13:50 PM 49.3000 -123.3333 147° Southeast 240 276 10,000 -500 Level Vancouver Center
Fri 11:14:50 PM 49.2667 -123.2667 127° Southeast 250 288 9,000 -1,650 Descending Vancouver Center
Fri 11:15:50 PM 49.2500 -123.1333 101° East 250 288 6,700 -2,450 Descending Vancouver Center
Fri 11:16:50 PM 49.2333 -123.0333 104° East 240 276 4,100 -1,850 Descending Vancouver Center
Fri 11:17:50 PM 49.2167 -122.9500 107° East 220 253 3,000 -850 Descending Vancouver Center
Fri 11:18:50 PM 49.1833 -123.0000 224° Southwest 180 207 2,400 -750 Descending Vancouver Center
Fri 11:19:50 PM 49.1667 -123.0667 249° West 150 173 1,500 -800 Descending Vancouver Center
Fri 11:20:50 PM 49.1667 -123.1167 270° West 120 138 800 -700 Descending Vancouver Center
Fri 11:21:50 PM 49.1833 -123.1667 297° West 120 138 100 -700 Descending Vancouver Center

Login

Don't have an account? Register now (free) for customized features, flight alerts, and more!